Leandra — V2EB4 — position and weather

sailwx.info

Track history (hours):
 
Tides and Currents Weather Stations Pressure Air Temp Water Temp Dewpoint Dewpoint Depression Visibility Wind Speed Wind Dir Waves Ship Positions

Leandra

Last reported at 2014-Nov-13 03:33 UTC. Time now 2014-Nov-23 22:21 UTC.
Position N 35°59' W 005°32'.
Warning: this ship's position is 10 days out of date.

Length 146 m; draft 5.3 m.

Type: Cargo ship. MMSI: 305375000.

Date/timePositionNaut miles runAvg speedWind from/ knotsBaromVisibWave heightAir tempDewpointWater temp
2014-Nov-13 03:33N 35°59' W 005°32'9 9.1
2014-Nov-13 02:33N 36°05' W 005°23'3 2.8
2014-Nov-13 01:33N 36°07' W 005°22'0 0.2
2014-Nov-13 00:31N 36°07' W 005°22'0 0.1
2014-Nov-12 23:28N 36°08' W 005°22'0 0.0
2014-Nov-12 22:32N 36°08' W 005°22'0 0.1
2014-Nov-12 21:32N 36°08' W 005°22'0 0.0
2014-Nov-12 20:26N 36°08' W 005°22'0 0.1
2014-Nov-12 19:32N 36°08' W 005°22'0 0.0
2014-Nov-12 18:32N 36°08' W 005°22'0 0.0
2014-Nov-12 17:32N 36°08' W 005°22'0 0.0
2014-Nov-12 16:29N 36°08' W 005°22'0 0.2
2014-Nov-12 15:33N 36°07' W 005°22'5 5.3
2014-Nov-12 14:34N 36°04' W 005°17'7 1.7
2014-Nov-12 10:23N 36°07' W 005°09'  
2014-Nov-10 02:33N 37°42' E 009°23'1212.4
2014-Nov-10 01:32N 37°41' E 009°38'1211.9
2014-Nov-10 00:33N 37°40' E 009°53'1311.8
2014-Nov-09 23:29N 37°39' E 010°09'1111.8
2014-Nov-09 22:33N 37°38' E 010°23'2912.8
2014-Nov-09 20:16N 37°30' E 010°58'1013.4
2014-Nov-09 19:33N 37°28' E 011°10'4613.8
2014-Nov-09 16:14N 37°05' E 012°00'913.8
2014-Nov-09 15:33N 37°02' E 012°11'1413.8
2014-Nov-09 14:33N 36°58' E 012°28'1513.9
2014-Nov-09 13:30N 36°53' E 012°45'1313.7
2014-Nov-09 12:32N 36°49' E 013°01'3313.5
2014-Nov-09 10:05N 36°39' E 013°40'713.1
2014-Nov-09 09:33N 36°36' E 013°48'1313.0
2014-Nov-09 08:33N 36°32' E 014°03'1312.9
2014-Nov-09 07:33N 36°29' E 014°19'43712.0
2014-Nov-07 19:10N 34°53' E 023°03'13113.6
2014-Nov-07 09:33N 34°43' E 025°43'1313.2
2014-Nov-07 08:33N 34°43' E 025°59'32913.6
2014-Nov-06 08:23N 35°47' E 032°34'1413.8
2014-Nov-06 07:21N 35°49' E 032°52'  
Track history (hours):
 
Tides and Currents Weather Stations Pressure Air Temp Water Temp Dewpoint Dewpoint Depression Visibility Wind Speed Wind Dir Waves Ship Positions

Leandra

Last reported at 2014-Nov-13 03:33 UTC. Time now 2014-Nov-23 22:21 UTC.
Position N 35°59' W 005°32'.
Warning: this ship's position is 10 days out of date.

Length 146 m; draft 5.3 m.

Type: Cargo ship. MMSI: 305375000.

Date/timePositionNaut miles runAvg speedWind from/ knotsBaromVisibWave heightAir tempDewpointWater temp
2014-Nov-13 03:33N 35°59' W 005°32'9 9.1
2014-Nov-13 02:33N 36°05' W 005°23'3 2.8
2014-Nov-13 01:33N 36°07' W 005°22'0 0.2
2014-Nov-13 00:31N 36°07' W 005°22'0 0.1
2014-Nov-12 23:28N 36°08' W 005°22'0 0.0
2014-Nov-12 22:32N 36°08' W 005°22'0 0.1
2014-Nov-12 21:32N 36°08' W 005°22'0 0.0
2014-Nov-12 20:26N 36°08' W 005°22'0 0.1
2014-Nov-12 19:32N 36°08' W 005°22'0 0.0
2014-Nov-12 18:32N 36°08' W 005°22'0 0.0
2014-Nov-12 17:32N 36°08' W 005°22'0 0.0
2014-Nov-12 16:29N 36°08' W 005°22'0 0.2
2014-Nov-12 15:33N 36°07' W 005°22'5 5.3
2014-Nov-12 14:34N 36°04' W 005°17'7 1.7
2014-Nov-12 10:23N 36°07' W 005°09'  
2014-Nov-10 02:33N 37°42' E 009°23'1212.4
2014-Nov-10 01:32N 37°41' E 009°38'1211.9
2014-Nov-10 00:33N 37°40' E 009°53'1311.8
2014-Nov-09 23:29N 37°39' E 010°09'1111.8
2014-Nov-09 22:33N 37°38' E 010°23'2912.8
2014-Nov-09 20:16N 37°30' E 010°58'1013.4
2014-Nov-09 19:33N 37°28' E 011°10'4613.8
2014-Nov-09 16:14N 37°05' E 012°00'913.8
2014-Nov-09 15:33N 37°02' E 012°11'1413.8
2014-Nov-09 14:33N 36°58' E 012°28'1513.9
2014-Nov-09 13:30N 36°53' E 012°45'1313.7
2014-Nov-09 12:32N 36°49' E 013°01'3313.5
2014-Nov-09 10:05N 36°39' E 013°40'713.1
2014-Nov-09 09:33N 36°36' E 013°48'1313.0
2014-Nov-09 08:33N 36°32' E 014°03'1312.9
2014-Nov-09 07:33N 36°29' E 014°19'43712.0
2014-Nov-07 19:10N 34°53' E 023°03'13113.6
2014-Nov-07 09:33N 34°43' E 025°43'1313.2
2014-Nov-07 08:33N 34°43' E 025°59'32913.6
2014-Nov-06 08:23N 35°47' E 032°34'1413.8
2014-Nov-06 07:21N 35°49' E 032°52'  

Dump ship's entire track history